createdAt,value
2023-04-07T00:00:09.243Z,101054.59
2023-04-07T00:01:14.002Z,101055.47
2023-04-07T00:02:16.611Z,101066.97
2023-04-07T00:03:19.223Z,101054.63
2023-04-07T00:04:21.872Z,101058.16
2023-04-07T00:05:24.276Z,101045.72
2023-04-07T00:06:27.474Z,101054.59
2023-04-07T00:07:29.760Z,101059.88
2023-04-07T00:08:32.162Z,101052.84
2023-04-07T00:09:34.382Z,101050.16
2023-04-07T00:10:36.640Z,101047.53
2023-04-07T00:11:39.045Z,101047.56
2023-04-07T00:12:41.477Z,101047.56
2023-04-07T00:13:43.825Z,101049.34
2023-04-07T00:14:46.139Z,101051.13
2023-04-07T00:15:48.533Z,101046.69
2023-04-07T00:16:52.132Z,101044.91
2023-04-07T00:17:54.322Z,101041.34
2023-04-07T00:18:56.867Z,101042.22
2023-04-07T00:19:59.039Z,101041.31
2023-04-07T00:21:01.500Z,101050.13
2023-04-07T00:22:03.764Z,101050.13
2023-04-07T00:23:06.113Z,101046.59
2023-04-07T00:24:08.297Z,101043.03
2023-04-07T00:25:10.786Z,101049.22
2023-04-07T00:26:13.125Z,101041.28
2023-04-07T00:27:18.655Z,101039.53
2023-04-07T00:28:20.852Z,101042.13
2023-04-07T00:29:23.330Z,101041.22
2023-04-07T00:30:25.549Z,101042.13
2023-04-07T00:31:27.991Z,101036.78
2023-04-07T00:32:30.237Z,101040.34
2023-04-07T00:33:32.663Z,101043.84
2023-04-07T00:34:34.839Z,101047.41
2023-04-07T00:35:37.139Z,101041.22
2023-04-07T00:36:39.809Z,101035.94
2023-04-07T00:37:42.101Z,101040.34
2023-04-07T00:38:44.380Z,101033.31
2023-04-07T00:39:47.395Z,101033.31
2023-04-07T00:40:49.811Z,101033.31
2023-04-07T00:41:52.486Z,101036.88
2023-04-07T00:42:54.641Z,101032.44
2023-04-07T00:43:56.819Z,101033.34
2023-04-07T00:44:59.016Z,101034.25
2023-04-07T00:46:01.567Z,101030.75
2023-04-07T00:47:04.031Z,101032.47
2023-04-07T00:48:06.370Z,101026.31
2023-04-07T00:49:11.073Z,101034.25
2023-04-07T00:50:13.680Z,101021.84
2023-04-07T00:51:16.408Z,101025.38
2023-04-07T00:52:20.006Z,101030.66
2023-04-07T00:53:22.473Z,101024.50
2023-04-07T00:54:25.436Z,101025.34
2023-04-07T00:55:28.037Z,101020.94
2023-04-07T00:56:30.314Z,101027.09
2023-04-07T00:57:33.643Z,101019.16
2023-04-07T00:58:36.059Z,101021.75
2023-04-07T00:59:38.810Z,101021.75
2023-04-07T01:00:55.415Z,101022.56
2023-04-07T01:02:11.640Z,101015.50
2023-04-07T01:03:21.628Z,101016.38
2023-04-07T01:04:33.443Z,101014.63
2023-04-07T01:05:51.338Z,101017.28
2023-04-07T01:06:59.565Z,101015.50
2023-04-07T01:08:29.229Z,101011.94
2023-04-07T01:09:41.125Z,101013.72
2023-04-07T01:10:56.744Z,101020.78
2023-04-07T01:12:14.906Z,101016.31
2023-04-07T01:13:23.703Z,101008.38
2023-04-07T01:14:34.094Z,101014.47
2023-04-07T01:15:50.053Z,101012.75
2023-04-07T01:16:55.876Z,101010.09
2023-04-07T01:18:13.247Z,101008.31
2023-04-07T01:19:30.421Z,101009.22
2023-04-07T01:20:35.376Z,101011.00
2023-04-07T01:21:39.374Z,100998.63
2023-04-07T01:22:46.244Z,101004.84
2023-04-07T01:24:20.208Z,100997.75
2023-04-07T01:25:49.764Z,101003.06
2023-04-07T01:26:56.330Z,101001.28
2023-04-07T01:28:02.116Z,100995.03
2023-04-07T01:29:42.096Z,101002.13
2023-04-07T01:30:45.992Z,101003.06
2023-04-07T01:31:50.410Z,100997.75
2023-04-07T01:32:54.665Z,100999.53
2023-04-07T01:33:59.365Z,100997.81
2023-04-07T01:35:04.887Z,100996.94
2023-04-07T01:36:08.186Z,101003.16
2023-04-07T01:37:11.921Z,100993.47
2023-04-07T01:38:14.745Z,100993.47
2023-04-07T01:39:18.904Z,100993.47
2023-04-07T01:40:22.847Z,100993.56
2023-04-07T01:41:25.862Z,100984.75
2023-04-07T01:42:28.630Z,100990.00
2023-04-07T01:43:31.696Z,100988.25
2023-04-07T01:44:35.670Z,100989.97
2023-04-07T01:45:39.762Z,100991.72
2023-04-07T01:46:42.202Z,100982.00
2023-04-07T01:47:45.871Z,100986.44
2023-04-07T01:48:48.955Z,100982.88
2023-04-07T01:49:52.344Z,100988.94
2023-04-07T01:50:56.159Z,100985.25
2023-04-07T01:52:02.383Z,100980.75
2023-04-07T01:53:08.494Z,100988.69
2023-04-07T01:54:10.781Z,100981.66
2023-04-07T01:55:14.600Z,100980.88
2023-04-07T01:56:26.179Z,100981.78
2023-04-07T01:57:29.908Z,100985.34
2023-04-07T01:58:37.198Z,100987.16
2023-04-07T01:59:42.085Z,100984.59
2023-04-07T02:00:44.770Z,100986.47
2023-04-07T02:01:51.502Z,100985.56
2023-04-07T02:03:03.131Z,100988.25
2023-04-07T02:04:13.120Z,100985.59
2023-04-07T02:05:20.924Z,100983.78
2023-04-07T02:06:32.254Z,100992.53
2023-04-07T02:07:34.301Z,100986.31
2023-04-07T02:08:40.025Z,100981.94
2023-04-07T02:09:43.568Z,100985.38
2023-04-07T02:10:49.356Z,100987.03
2023-04-07T02:11:53.657Z,100981.66
2023-04-07T02:12:58.509Z,100983.41
2023-04-07T02:14:03.141Z,100986.09
2023-04-07T02:15:12.836Z,100988.75
2023-04-07T02:16:17.254Z,100990.56
2023-04-07T02:17:21.373Z,100981.78
2023-04-07T02:18:25.186Z,100983.56
2023-04-07T02:19:28.110Z,100976.59
2023-04-07T02:20:32.010Z,100981.91
2023-04-07T02:21:36.472Z,100981.94
2023-04-07T02:22:39.750Z,100987.28
2023-04-07T02:23:44.451Z,100983.72
2023-04-07T02:24:46.853Z,100980.22
2023-04-07T02:25:49.231Z,100978.53
2023-04-07T02:26:51.659Z,100974.13
2023-04-07T02:27:54.983Z,100971.53
2023-04-07T02:28:57.400Z,100970.63
2023-04-07T02:29:59.820Z,100979.44
2023-04-07T02:31:02.202Z,100981.19
2023-04-07T02:32:06.546Z,100975.88
2023-04-07T02:33:08.977Z,100975.97
2023-04-07T02:34:11.185Z,100973.31
2023-04-07T02:35:16.109Z,100975.13
2023-04-07T02:36:18.278Z,100972.50
2023-04-07T02:37:20.640Z,100968.94
2023-04-07T02:38:23.057Z,100970.75
2023-04-07T02:39:25.303Z,100968.97
2023-04-07T02:40:30.028Z,100968.13
2023-04-07T02:41:32.455Z,100977.00
2023-04-07T02:42:36.680Z,100971.69
2023-04-07T02:43:42.390Z,100969.97
2023-04-07T02:44:45.107Z,100971.75
2023-04-07T02:45:47.603Z,100974.41
2023-04-07T02:46:50.222Z,100971.78
2023-04-07T02:47:52.473Z,100971.81
2023-04-07T02:48:54.702Z,100970.94
2023-04-07T02:49:56.970Z,100969.16
2023-04-07T02:50:59.321Z,100967.41
2023-04-07T02:52:01.792Z,100957.69
2023-04-07T02:53:04.033Z,100963.88
2023-04-07T02:54:06.291Z,100963.91
2023-04-07T02:55:08.949Z,100965.72
2023-04-07T02:56:11.618Z,100969.28
2023-04-07T02:57:14.154Z,100968.38
2023-04-07T02:58:16.681Z,100963.03
2023-04-07T02:59:20.232Z,100961.28
2023-04-07T03:00:22.741Z,100960.34
2023-04-07T03:01:36.603Z,100956.81
2023-04-07T03:02:39.095Z,100958.59
2023-04-07T03:03:42.437Z,100957.75
2023-04-07T03:04:55.319Z,100965.72
2023-04-07T03:06:01.445Z,100961.34
2023-04-07T03:07:04.174Z,100965.78
2023-04-07T03:08:07.848Z,100961.34
2023-04-07T03:09:10.576Z,100962.22
2023-04-07T03:10:12.799Z,100956.91
2023-04-07T03:11:14.944Z,100956.00
2023-04-07T03:12:18.112Z,100960.41
2023-04-07T03:13:21.406Z,100955.06
2023-04-07T03:14:23.682Z,100956.81
2023-04-07T03:15:26.175Z,100956.81
2023-04-07T03:16:28.527Z,100962.97
2023-04-07T03:17:39.186Z,100958.53
2023-04-07T03:18:41.407Z,100950.63
2023-04-07T03:19:44.846Z,100954.13
2023-04-07T03:20:48.594Z,100952.41
2023-04-07T03:21:52.502Z,100947.97
2023-04-07T03:22:54.701Z,100949.75
2023-04-07T03:24:01.664Z,100952.41
2023-04-07T03:25:04.689Z,100954.16
2023-04-07T03:26:07.063Z,100955.91
2023-04-07T03:27:12.073Z,100949.88
2023-04-07T03:28:19.321Z,100956.03
2023-04-07T03:29:21.635Z,100955.16
2023-04-07T03:30:23.867Z,100957.81
2023-04-07T03:31:26.315Z,100955.16
2023-04-07T03:32:29.827Z,100953.41
2023-04-07T03:33:32.461Z,100955.19
2023-04-07T03:34:34.836Z,100949.03
2023-04-07T03:35:37.081Z,100951.66
2023-04-07T03:36:39.343Z,100951.66
2023-04-07T03:37:41.990Z,100947.22
2023-04-07T03:38:49.198Z,100951.63
2023-04-07T03:39:53.295Z,100943.72
2023-04-07T03:41:05.267Z,100944.63
2023-04-07T03:42:07.710Z,100953.44
2023-04-07T03:43:15.942Z,100938.44
2023-04-07T03:44:20.120Z,100938.38
2023-04-07T03:45:22.330Z,100941.03
2023-04-07T03:46:27.422Z,100938.38
2023-04-07T03:47:30.445Z,100943.63
2023-04-07T03:48:37.017Z,100938.34
2023-04-07T03:49:42.803Z,100938.38
2023-04-07T03:50:45.889Z,100936.63
2023-04-07T03:51:51.689Z,100934.03
2023-04-07T03:52:55.316Z,100936.66
2023-04-07T03:54:00.841Z,100934.03
2023-04-07T03:55:15.936Z,100941.09
2023-04-07T03:56:18.147Z,100931.34
2023-04-07T03:57:23.669Z,100931.31
2023-04-07T03:58:28.182Z,100933.06
2023-04-07T03:59:31.786Z,100940.13
2023-04-07T04:00:37.948Z,100937.47
2023-04-07T04:01:44.103Z,100938.34
2023-04-07T04:02:50.536Z,100944.53
2023-04-07T04:03:56.126Z,100933.06
2023-04-07T04:05:00.774Z,100940.97
2023-04-07T04:06:03.204Z,100948.03
2023-04-07T04:07:07.485Z,100944.53
2023-04-07T04:08:30.799Z,100940.09
2023-04-07T04:09:33.386Z,100941.91
2023-04-07T04:10:35.771Z,100949.84
2023-04-07T04:11:38.060Z,100941.00
2023-04-07T04:12:41.701Z,100943.66
2023-04-07T04:13:46.835Z,100948.06
2023-04-07T04:14:49.465Z,100948.94
2023-04-07T04:15:53.114Z,100953.34
2023-04-07T04:16:55.375Z,100951.59
2023-04-07T04:18:11.865Z,100954.25
2023-04-07T04:19:14.847Z,100956.03
2023-04-07T04:20:18.579Z,100959.59
2023-04-07T04:21:27.327Z,100947.22
2023-04-07T04:22:29.826Z,100954.28
2023-04-07T04:23:33.764Z,100941.91
2023-04-07T04:24:36.195Z,100947.19
2023-04-07T04:25:40.885Z,100948.09
2023-04-07T04:26:46.229Z,100947.19
2023-04-07T04:27:49.710Z,100950.81
2023-04-07T04:29:00.792Z,100950.84
2023-04-07T04:30:03.824Z,100954.38
2023-04-07T04:31:11.884Z,100949.06
2023-04-07T04:32:18.291Z,100949.97
2023-04-07T04:33:20.832Z,100960.50
2023-04-07T04:34:28.990Z,100958.78
2023-04-07T04:35:32.193Z,100953.47
2023-04-07T04:36:49.075Z,100955.22
2023-04-07T04:37:53.756Z,100956.97
2023-04-07T04:38:56.347Z,100953.47
2023-04-07T04:39:59.071Z,100954.41
2023-04-07T04:41:01.527Z,100953.53
2023-04-07T04:42:06.098Z,100953.53
2023-04-07T04:43:11.375Z,100950.91
2023-04-07T04:44:15.739Z,100951.78
2023-04-07T04:45:18.377Z,100951.81
2023-04-07T04:46:23.459Z,100956.19
2023-04-07T04:47:26.074Z,100948.28
2023-04-07T04:48:28.477Z,100956.19
2023-04-07T04:49:31.563Z,100958.88
2023-04-07T04:50:37.257Z,100952.69
2023-04-07T04:51:45.459Z,100958.88
2023-04-07T04:52:51.653Z,100956.22
2023-04-07T04:53:57.690Z,100948.31
2023-04-07T04:55:02.169Z,100956.22
2023-04-07T04:56:05.414Z,100958.88
2023-04-07T04:57:14.198Z,100956.22
2023-04-07T04:58:16.458Z,100953.56
2023-04-07T04:59:24.040Z,100955.31
2023-04-07T05:00:38.335Z,100955.28
2023-04-07T05:01:43.563Z,100954.38
2023-04-07T05:02:50.223Z,100957.03
2023-04-07T05:03:52.640Z,100961.38
2023-04-07T05:05:02.771Z,100961.41
2023-04-07T05:06:05.699Z,100960.53
2023-04-07T05:07:08.671Z,100964.03
2023-04-07T05:08:11.537Z,100962.22
2023-04-07T05:09:15.729Z,100958.78
2023-04-07T05:10:20.876Z,100959.69
2023-04-07T05:11:25.929Z,100958.84
2023-04-07T05:12:30.797Z,100959.72
2023-04-07T05:13:36.859Z,100970.31
2023-04-07T05:14:40.073Z,100971.19
2023-04-07T05:15:44.109Z,100959.72
2023-04-07T05:16:48.911Z,100960.63
2023-04-07T05:17:56.281Z,100961.50
2023-04-07T05:19:02.071Z,100967.63
2023-04-07T05:20:04.767Z,100958.84
2023-04-07T05:21:11.417Z,100973.84
2023-04-07T05:22:13.755Z,100973.84
2023-04-07T05:23:21.017Z,100968.56
2023-04-07T05:24:29.320Z,100972.06
2023-04-07T05:25:35.178Z,100971.16
2023-04-07T05:26:40.571Z,100968.50
2023-04-07T05:27:43.868Z,100968.53
2023-04-07T05:28:50.093Z,100973.81
2023-04-07T05:29:55.765Z,100964.97
2023-04-07T05:31:03.325Z,100968.50
2023-04-07T05:32:08.296Z,100963.19
2023-04-07T05:33:12.299Z,100965.84
2023-04-07T05:34:21.641Z,100968.47
2023-04-07T05:35:28.582Z,100967.53
2023-04-07T05:36:33.683Z,100969.34
2023-04-07T05:37:36.038Z,100964.91
2023-04-07T05:38:40.654Z,100963.06
2023-04-07T05:39:47.755Z,100957.84
2023-04-07T05:40:50.578Z,100957.78
2023-04-07T05:42:02.979Z,100952.50
2023-04-07T05:43:05.357Z,100955.97
2023-04-07T05:44:09.187Z,100955.91
2023-04-07T05:45:16.097Z,100946.19
2023-04-07T05:46:21.991Z,100956.75
2023-04-07T05:47:29.372Z,100948.78
2023-04-07T05:48:32.308Z,100960.19
2023-04-07T05:49:35.712Z,100950.44
2023-04-07T05:50:41.660Z,100958.38
2023-04-07T05:51:49.003Z,100953.03
2023-04-07T05:52:52.667Z,100953.00
2023-04-07T05:54:03.260Z,100954.72
2023-04-07T05:55:06.784Z,100951.16
2023-04-07T05:56:09.126Z,100957.31
2023-04-07T05:57:22.755Z,100958.13
2023-04-07T05:58:28.036Z,100952.78
2023-04-07T05:59:31.434Z,100961.63
2023-04-07T06:00:33.749Z,100962.56
2023-04-07T06:01:43.026Z,100959.88
2023-04-07T06:02:46.660Z,100965.06
2023-04-07T06:03:53.731Z,100967.69
2023-04-07T06:04:59.331Z,100968.53
2023-04-07T06:06:01.672Z,100969.38
2023-04-07T06:07:04.417Z,100972.84
2023-04-07T06:08:06.882Z,100968.47
2023-04-07T06:09:09.121Z,100970.25
2023-04-07T06:10:11.490Z,100965.81
2023-04-07T06:11:14.158Z,100975.56
2023-04-07T06:12:17.036Z,100970.22
2023-04-07T06:13:19.294Z,100962.41
2023-04-07T06:14:21.722Z,100963.38
2023-04-07T06:15:23.997Z,100964.25
2023-04-07T06:16:26.289Z,100966.78
2023-04-07T06:17:28.788Z,100958.69
2023-04-07T06:18:31.136Z,100959.59
2023-04-07T06:19:34.103Z,100956.88
2023-04-07T06:20:36.380Z,100965.75
2023-04-07T06:21:39.878Z,100959.59
2023-04-07T06:22:42.168Z,100963.91
2023-04-07T06:23:44.343Z,100958.59
2023-04-07T06:24:46.604Z,100959.41
2023-04-07T06:25:51.989Z,100966.38
2023-04-07T06:26:55.131Z,100959.22
2023-04-07T06:27:57.365Z,100956.59
2023-04-07T06:28:59.713Z,100961.97
2023-04-07T06:30:02.107Z,100959.34
2023-04-07T06:31:04.444Z,100955.81
2023-04-07T06:32:06.762Z,100954.81
2023-04-07T06:33:08.973Z,100950.22
2023-04-07T06:34:11.458Z,100958.25
2023-04-07T06:35:14.175Z,100954.66
2023-04-07T06:36:16.533Z,100952.16
2023-04-07T06:37:18.816Z,100955.75
2023-04-07T06:38:21.067Z,100951.28
2023-04-07T06:39:23.278Z,100953.78
2023-04-07T06:40:25.816Z,100955.47
2023-04-07T06:41:27.994Z,100956.16
2023-04-07T06:42:30.757Z,100953.56
2023-04-07T06:43:41.882Z,100952.72
2023-04-07T06:44:44.301Z,100953.56
2023-04-07T06:45:46.591Z,100955.38
2023-04-07T06:46:53.062Z,100952.75
2023-04-07T06:47:55.408Z,100951.75
2023-04-07T06:48:57.613Z,100945.66
2023-04-07T06:50:00.245Z,100951.94
2023-04-07T06:51:02.442Z,100949.94
2023-04-07T06:52:05.787Z,100953.38
2023-04-07T06:53:07.981Z,100958.41
2023-04-07T06:54:13.942Z,100953.81
2023-04-07T06:55:16.631Z,100957.25
2023-04-07T06:56:18.854Z,100958.41
2023-04-07T06:57:21.376Z,100953.13
2023-04-07T06:58:23.535Z,100955.81
2023-04-07T06:59:26.108Z,100955.81
2023-04-07T07:00:31.055Z,100955.13
2023-04-07T07:01:34.185Z,100958.66
2023-04-07T07:02:36.627Z,100948.63
2023-04-07T07:03:39.143Z,100957.38
2023-04-07T07:04:41.558Z,100958.03
2023-04-07T07:05:43.999Z,100962.31
2023-04-07T07:06:46.219Z,100954.13
2023-04-07T07:07:48.405Z,100955.78
2023-04-07T07:08:50.925Z,100949.41
2023-04-07T07:09:54.455Z,100953.81
2023-04-07T07:10:57.164Z,100958.13
2023-04-07T07:11:59.401Z,100953.31
2023-04-07T07:13:01.576Z,100952.22
2023-04-07T07:14:03.786Z,100948.75
2023-04-07T07:15:06.998Z,100953.09
2023-04-07T07:16:09.305Z,100956.63
2023-04-07T07:17:11.582Z,100953.19
2023-04-07T07:18:13.910Z,100949.69
2023-04-07T07:19:16.281Z,100948.03
2023-04-07T07:20:18.936Z,100960.38
2023-04-07T07:21:21.140Z,100961.09
2023-04-07T07:22:23.374Z,100962.81
2023-04-07T07:23:25.634Z,100959.13
2023-04-07T07:24:29.265Z,100961.91
2023-04-07T07:25:31.982Z,100963.81
2023-04-07T07:26:34.201Z,100958.63
2023-04-07T07:27:36.664Z,100963.03
2023-04-07T07:28:38.878Z,100955.03
2023-04-07T07:29:41.273Z,100960.34
2023-04-07T07:30:43.737Z,100956.75
2023-04-07T07:31:46.056Z,100965.66
2023-04-07T07:32:48.470Z,100966.50
2023-04-07T07:33:51.847Z,100963.75
2023-04-07T07:34:54.309Z,100961.06
2023-04-07T07:35:56.737Z,100969.88
2023-04-07T07:36:59.904Z,100969.88
2023-04-07T07:38:02.226Z,100967.63
2023-04-07T07:39:05.501Z,100960.59
2023-04-07T07:40:08.076Z,100966.13
2023-04-07T07:41:10.347Z,100968.59
2023-04-07T07:42:12.553Z,100970.00
2023-04-07T07:43:14.697Z,100963.84
2023-04-07T07:44:17.111Z,100967.13
2023-04-07T07:45:19.686Z,100970.38
2023-04-07T07:46:23.927Z,100965.66
2023-04-07T07:47:26.627Z,100973.53
2023-04-07T07:48:28.942Z,100976.28
2023-04-07T07:49:31.986Z,100965.06
2023-04-07T07:50:34.358Z,100971.44
2023-04-07T07:51:36.802Z,100971.19
2023-04-07T07:52:39.021Z,100971.13
2023-04-07T07:53:41.440Z,100971.31
2023-04-07T07:54:43.740Z,100973.78
2023-04-07T07:55:47.248Z,100968.72
2023-04-07T07:56:49.476Z,100968.78
2023-04-07T07:57:51.681Z,100972.13
2023-04-07T07:58:54.089Z,100967.53
2023-04-07T07:59:56.546Z,100971.97
2023-04-07T08:00:58.749Z,100975.19
2023-04-07T08:02:01.031Z,100974.22
2023-04-07T08:03:03.473Z,100973.25
2023-04-07T08:04:05.972Z,100974.88
2023-04-07T08:05:08.498Z,100974.78
2023-04-07T08:06:12.109Z,100977.34
2023-04-07T08:07:14.348Z,100974.66
2023-04-07T08:08:16.842Z,100974.50
2023-04-07T08:09:20.171Z,100977.00
2023-04-07T08:10:23.245Z,100975.28
2023-04-07T08:11:28.302Z,100977.94
2023-04-07T08:12:30.618Z,100983.31
2023-04-07T08:13:33.645Z,100975.44
2023-04-07T08:14:36.031Z,100985.31
2023-04-07T08:15:40.393Z,100983.63
2023-04-07T08:16:43.527Z,100972.13
2023-04-07T08:17:46.325Z,100971.13
2023-04-07T08:18:48.908Z,100975.44
2023-04-07T08:19:51.607Z,100977.94
2023-04-07T08:20:53.797Z,100983.78
2023-04-07T08:21:56.101Z,100974.97
2023-04-07T08:22:58.903Z,100981.25
2023-04-07T08:24:01.310Z,100979.97
2023-04-07T08:25:03.684Z,100985.16
2023-04-07T08:26:05.903Z,100981.41
2023-04-07T08:27:08.328Z,100974.97
2023-04-07T08:28:11.710Z,100984.59
2023-04-07T08:29:20.943Z,100978.84
2023-04-07T08:30:24.484Z,100979.59
2023-04-07T08:31:26.940Z,100984.03
2023-04-07T08:32:41.269Z,100984.78
2023-04-07T08:33:43.730Z,100984.16
2023-04-07T08:34:46.229Z,100989.41
2023-04-07T08:35:48.745Z,100988.38
2023-04-07T08:36:51.593Z,100989.91
2023-04-07T08:37:53.894Z,100996.09
2023-04-07T08:38:56.884Z,100992.34
2023-04-07T08:39:59.461Z,100996.66
2023-04-07T08:41:26.848Z,100985.97
2023-04-07T08:42:31.810Z,100991.31
2023-04-07T08:43:36.823Z,100990.59
2023-04-07T08:44:39.488Z,100987.38
2023-04-07T08:45:46.612Z,100995.59
2023-04-07T08:46:51.523Z,100994.78
2023-04-07T08:47:58.969Z,100996.91
2023-04-07T08:49:02.499Z,100990.47
2023-04-07T08:50:07.855Z,100993.00
2023-04-07T08:51:13.727Z,100991.16
2023-04-07T08:52:18.598Z,100998.22
2023-04-07T08:53:32.039Z,100999.75
2023-04-07T08:54:35.102Z,100994.22
2023-04-07T08:55:37.349Z,100993.41
2023-04-07T08:56:43.534Z,100997.03
2023-04-07T08:57:46.928Z,100996.22
2023-04-07T08:58:49.320Z,100999.63
2023-04-07T08:59:51.741Z,100995.69
2023-04-07T09:00:54.294Z,101000.69
2023-04-07T09:01:57.014Z,100996.84
2023-04-07T09:03:00.714Z,101000.06
2023-04-07T09:04:04.279Z,101001.03
2023-04-07T09:05:09.030Z,100998.78
2023-04-07T09:06:11.852Z,100998.59
2023-04-07T09:07:14.045Z,101006.09
2023-04-07T09:08:16.412Z,101000.31
2023-04-07T09:09:18.676Z,101006.22
2023-04-07T09:10:21.308Z,101002.38
2023-04-07T09:11:23.714Z,101001.94
2023-04-07T09:12:28.117Z,100999.41
2023-04-07T09:13:31.761Z,101003.88
2023-04-07T09:14:33.986Z,101004.22
2023-04-07T09:15:38.613Z,101006.13
2023-04-07T09:16:41.954Z,101003.38
2023-04-07T09:17:44.413Z,101001.28
2023-04-07T09:18:47.342Z,101004.41
2023-04-07T09:19:49.696Z,101001.63
2023-04-07T09:21:03.575Z,100998.09
2023-04-07T09:22:05.872Z,101004.69
2023-04-07T09:23:27.130Z,100999.16
2023-04-07T09:24:31.485Z,101000.34
2023-04-07T09:25:34.264Z,101001.19
2023-04-07T09:26:36.644Z,101001.19
2023-04-07T09:27:38.884Z,100991.13
2023-04-07T09:28:42.260Z,100993.78
2023-04-07T09:29:46.573Z,100999.13
2023-04-07T09:30:55.768Z,100993.63
2023-04-07T09:31:58.161Z,100995.97
2023-04-07T09:33:02.083Z,100996.66
2023-04-07T09:34:23.450Z,100990.31
2023-04-07T09:35:28.134Z,100984.97
2023-04-07T09:36:41.687Z,100988.94
2023-04-07T09:37:44.743Z,100988.69
2023-04-07T09:38:48.298Z,100992.16
2023-04-07T09:39:52.569Z,100979.94
2023-04-07T09:41:06.033Z,100988.09
2023-04-07T09:42:08.271Z,100985.00
2023-04-07T09:43:17.281Z,100990.88
2023-04-07T09:44:20.546Z,100985.84
2023-04-07T09:45:34.692Z,100983.31
2023-04-07T09:46:49.536Z,100978.31
2023-04-07T09:47:51.924Z,100979.13
2023-04-07T09:49:05.564Z,100976.19
2023-04-07T09:50:08.115Z,100973.09
2023-04-07T09:51:16.249Z,100971.00
2023-04-07T09:52:20.561Z,100976.66
2023-04-07T09:53:42.168Z,100975.91
2023-04-07T09:54:45.639Z,100965.94
2023-04-07T09:55:48.823Z,100963.31
2023-04-07T09:56:51.223Z,100968.72
2023-04-07T09:57:55.586Z,100968.34
2023-04-07T09:58:57.963Z,100970.84
2023-04-07T10:00:00.934Z,100966.97
2023-04-07T10:01:05.718Z,100972.81
2023-04-07T10:02:08.814Z,100965.69
2023-04-07T10:03:11.369Z,100967.03
2023-04-07T10:04:14.013Z,100966.13
2023-04-07T10:05:16.395Z,100960.63
2023-04-07T10:06:20.638Z,100959.78
2023-04-07T10:07:23.125Z,100963.00
2023-04-07T10:08:25.477Z,100962.81
2023-04-07T10:09:29.410Z,100972.34
2023-04-07T10:10:32.467Z,100968.47
2023-04-07T10:11:37.537Z,100967.34
2023-04-07T10:12:41.408Z,100969.97
2023-04-07T10:13:44.026Z,100966.34
2023-04-07T10:14:47.422Z,100975.19
2023-04-07T10:15:50.112Z,100966.22
2023-04-07T10:16:52.885Z,100965.31
2023-04-07T10:17:57.001Z,100972.38
2023-04-07T10:18:59.494Z,100962.53
2023-04-07T10:20:02.341Z,100968.41
2023-04-07T10:21:09.347Z,100966.34
2023-04-07T10:22:13.344Z,100968.66
2023-04-07T10:23:50.724Z,100967.53
2023-04-07T10:25:21.323Z,100975.78
2023-04-07T10:26:29.101Z,100970.00
2023-04-07T10:27:38.804Z,100968.97
2023-04-07T10:28:44.080Z,100970.69
2023-04-07T10:29:50.426Z,100967.50
2023-04-07T10:30:54.087Z,100974.63
2023-04-07T10:31:56.578Z,100970.69
2023-04-07T10:32:59.485Z,100967.59
2023-04-07T10:34:02.795Z,100975.28
2023-04-07T10:35:05.410Z,100966.47
2023-04-07T10:36:08.289Z,100968.63
2023-04-07T10:37:14.290Z,100976.13
2023-04-07T10:38:18.399Z,100974.13
2023-04-07T10:39:21.660Z,100963.81
2023-04-07T10:40:30.276Z,100969.72
2023-04-07T10:41:39.610Z,100976.81
2023-04-07T10:42:41.761Z,100977.34
2023-04-07T10:43:45.058Z,100969.88
2023-04-07T10:44:49.724Z,100969.03
2023-04-07T10:45:54.581Z,100979.69
2023-04-07T10:46:57.174Z,100966.22
2023-04-07T10:47:59.731Z,100976.53
2023-04-07T10:49:13.331Z,100978.19
2023-04-07T10:50:21.534Z,100971.88
2023-04-07T10:51:24.232Z,100978.50
2023-04-07T10:52:26.656Z,100978.56
2023-04-07T10:53:29.039Z,100975.34
2023-04-07T10:54:31.505Z,100968.34
2023-04-07T10:55:33.741Z,100974.22
2023-04-07T10:57:03.996Z,100978.13
2023-04-07T10:58:25.047Z,100978.63
2023-04-07T10:59:28.006Z,100975.88
2023-04-07T11:00:30.382Z,100981.19
2023-04-07T11:01:34.792Z,100975.84
2023-04-07T11:02:39.995Z,100972.19
2023-04-07T11:03:54.462Z,100975.34
2023-04-07T11:04:57.237Z,100976.88
2023-04-07T11:06:10.590Z,100967.19
2023-04-07T11:07:16.609Z,100975.03
2023-04-07T11:08:38.279Z,100982.66
2023-04-07T11:09:41.432Z,100977.16
2023-04-07T11:10:48.199Z,100980.59
2023-04-07T11:11:51.850Z,100971.69
2023-04-07T11:13:05.374Z,100968.25
2023-04-07T11:14:07.887Z,100971.16
2023-04-07T11:15:21.980Z,100973.78
2023-04-07T11:16:39.972Z,100971.41
2023-04-07T11:17:42.157Z,100976.84
2023-04-07T11:18:46.406Z,100973.22
2023-04-07T11:19:52.748Z,100982.25
2023-04-07T11:20:58.480Z,100973.84
2023-04-07T11:22:29.428Z,100964.16
2023-04-07T11:23:44.349Z,100968.63
2023-04-07T11:24:47.296Z,100974.72
2023-04-07T11:25:51.265Z,100972.88
2023-04-07T11:26:53.895Z,100969.50
2023-04-07T11:27:56.297Z,100972.88
2023-04-07T11:28:59.283Z,100973.13
2023-04-07T11:30:01.639Z,100969.50
2023-04-07T11:31:04.210Z,100974.69
2023-04-07T11:32:07.017Z,100971.88
2023-04-07T11:33:09.234Z,100971.31
2023-04-07T11:34:12.210Z,100973.16
2023-04-07T11:35:15.215Z,100969.38
2023-04-07T11:36:27.035Z,100976.50
2023-04-07T11:37:29.230Z,100974.72
2023-04-07T11:38:38.952Z,100975.81
2023-04-07T11:39:41.319Z,100978.47
2023-04-07T11:40:43.528Z,100977.63
2023-04-07T11:41:47.712Z,100982.59
2023-04-07T11:42:49.940Z,100980.53
2023-04-07T11:44:12.407Z,100974.81
2023-04-07T11:45:19.656Z,100977.34
2023-04-07T11:46:22.642Z,100980.84
2023-04-07T11:47:36.124Z,100977.88
2023-04-07T11:48:43.697Z,100983.50
2023-04-07T11:49:47.225Z,100979.31
2023-04-07T11:50:49.422Z,100979.47
2023-04-07T11:52:00.828Z,100977.16
2023-04-07T11:53:03.212Z,100977.00
2023-04-07T11:54:05.609Z,100978.69
2023-04-07T11:55:17.415Z,100979.44
2023-04-07T11:56:19.792Z,100979.16
2023-04-07T11:57:29.312Z,100975.22
2023-04-07T11:58:32.421Z,100971.47
2023-04-07T11:59:34.798Z,100968.88
2023-04-07T12:00:37.453Z,100977.69
2023-04-07T12:01:41.866Z,100970.44
2023-04-07T12:02:44.523Z,100967.94
2023-04-07T12:03:57.473Z,100975.50
2023-04-07T12:05:00.314Z,100967.97
2023-04-07T12:06:03.714Z,100972.28
2023-04-07T12:07:12.314Z,100974.16
2023-04-07T12:08:16.596Z,100980.34
2023-04-07T12:09:31.011Z,100973.53
2023-04-07T12:10:35.128Z,100978.94
2023-04-07T12:11:37.577Z,100980.03
2023-04-07T12:12:39.762Z,100974.34
2023-04-07T12:13:42.599Z,100980.63
2023-04-07T12:14:45.124Z,100980.25
2023-04-07T12:15:47.454Z,100973.19
2023-04-07T12:16:49.782Z,100972.03
2023-04-07T12:17:52.309Z,100979.34
2023-04-07T12:18:54.582Z,100977.38
2023-04-07T12:19:57.129Z,100977.16